Time;durP1;ratioP1;P1;durP2;ratioP2;P2;SDS_P1;SDS_P2;PMS_P1;PMS_P2;Temp;Humidity;BMP_temperature;BMP_pressure;BME280_temperature;BME280_humidity;BME280_pressure;Samples;Min_cycle;Max_cycle;Signal;HPM_P1;HPM_P2
2021/01/04 00:00:47;;;;;;;70.35;28.70;;;3.80;95.70;;;;;;5020110;28;20205;-81
2021/01/04 00:03:28;;;;;;;70.15;29.02;;;3.80;95.70;;;;;;5020017;28;20045;-81
2021/01/04 00:06:21;;;;;;;63.90;27.88;;;3.80;95.70;;;;;;5002298;28;20546;-83
2021/01/04 00:09:22;;;;;;;69.47;29.38;;;3.70;95.70;;;;;;5020392;28;20026;-83
2021/01/04 00:12:01;;;;;;;65.47;30.15;;;3.70;95.60;;;;;;5020509;28;20021;-83
2021/01/04 00:14:50;;;;;;;76.82;33.25;;;3.70;95.60;;;;;;4983838;28;20045;-83
2021/01/04 00:17:50;;;;;;;72.75;32.25;;;3.60;95.60;;;;;;4981947;28;20038;-83
2021/01/04 00:20:53;;;;;;;64.88;28.45;;;3.60;95.70;;;;;;4937281;28;20101;-83
2021/01/04 00:23:36;;;;;;;;;;;3.60;95.60;;;;;;4979445;28;20150;-83
2021/01/04 00:26:05;;;;;;;;;;;3.50;95.70;;;;;;4979906;28;19914;-84
2021/01/04 00:28:35;;;;;;;57.95;26.50;;;3.50;95.70;;;;;;4980718;28;20356;-84
2021/01/04 00:31:18;;;;;;;66.78;27.08;;;3.50;95.70;;;;;;4981557;28;20073;-83
2021/01/04 00:33:54;;;;;;;63.55;27.73;;;3.40;95.90;;;;;;4978257;28;20022;-83
2021/01/04 00:36:23;;;;;;;63.78;27.08;;;3.40;96.10;;;;;;4978473;28;20026;-85
2021/01/04 00:39:25;;;;;;;59.83;24.80;;;3.40;96.20;;;;;;4978789;28;20030;-85
2021/01/04 00:42:04;;;;;;;67.40;29.30;;;3.40;96.20;;;;;;4976698;28;20026;-83
2021/01/04 00:44:55;;;;;;;79.10;30.05;;;3.40;96.20;;;;;;4977985;28;20030;-83
2021/01/04 00:47:42;;;;;;;61.95;27.55;;;3.40;96.30;;;;;;4976159;28;20031;-84
2021/01/04 00:50:26;;;;;;;60.03;25.52;;;3.40;96.30;;;;;;4977513;28;20030;-80
2021/01/04 00:52:59;;;;;;;56.83;25.02;;;3.50;96.30;;;;;;4977124;28;20023;-82
2021/01/04 00:55:36;;;;;;;60.15;25.15;;;3.50;96.30;;;;;;4977309;28;20027;-82
2021/01/04 00:58:07;;;;;;;65.57;26.52;;;3.40;96.30;;;;;;4975932;28;20027;-83
2021/01/04 01:00:46;;;;;;;64.72;27.52;;;3.50;96.20;;;;;;4977621;28;20022;-83
2021/01/04 01:03:17;;;;;;;69.22;28.48;;;3.40;96.20;;;;;;4977611;28;20050;-83
2021/01/04 01:05:42;;;;;;;73.00;29.80;;;3.40;96.20;;;;;;4977669;28;20085;-83
2021/01/04 01:08:20;;;;;;;72.10;29.55;;;3.40;96.20;;;;;;4977760;28;20381;-83
2021/01/04 01:11:03;;;;;;;69.80;29.45;;;3.40;96.30;;;;;;4977211;28;20019;-83
2021/01/04 01:13:42;;;;;;;75.88;29.00;;;3.40;96.30;;;;;;5001551;28;20116;-83
2021/01/04 01:16:18;;;;;;;82.47;31.70;;;3.40;96.30;;;;;;5016727;28;20081;-83
2021/01/04 01:18:47;;;;;;;73.38;28.33;;;3.40;96.40;;;;;;5017043;28;20096;-84
2021/01/04 01:21:12;;;;;;;69.97;29.33;;;3.40;96.50;;;;;;5017114;28;20380;-83
2021/01/04 01:23:40;;;;;;;74.15;30.27;;;3.40;96.60;;;;;;5016519;28;20022;-83
2021/01/04 01:26:12;;;;;;;66.47;26.65;;;3.40;96.50;;;;;;5016178;28;20037;-82
2021/01/04 01:29:05;;;;;;;66.60;28.45;;;3.40;96.60;;;;;;5016166;28;20069;-83
2021/01/04 01:31:45;;;;;;;64.03;27.83;;;3.40;96.60;;;;;;4996960;28;20026;-83
2021/01/04 01:34:26;;;;;;;62.92;26.80;;;3.50;96.90;;;;;;4997090;28;20022;-84
2021/01/04 01:37:19;;;;;;;70.15;26.88;;;3.50;96.60;;;;;;5016244;28;20030;-83
2021/01/04 01:40:20;;;;;;;62.03;26.95;;;3.50;96.60;;;;;;5018621;28;20391;-84
2021/01/04 01:43:04;;;;;;;63.85;27.88;;;3.50;96.60;;;;;;5017757;28;20491;-81
2021/01/04 01:46:01;;;;;;;67.25;28.90;;;3.50;96.70;;;;;;5014271;28;20029;-82
2021/01/04 01:49:05;;;;;;;69.13;30.77;;;3.50;96.70;;;;;;4976567;28;20129;-81
2021/01/04 01:51:48;;;;;;;77.25;31.08;;;3.50;96.60;;;;;;4997382;28;20034;-81
2021/01/04 01:54:49;;;;;;;82.55;32.38;;;3.50;96.70;;;;;;5014860;28;20017;-81
2021/01/04 01:57:46;;;;;;;74.70;31.70;;;3.50;96.70;;;;;;4996960;28;20026;-81
2021/01/04 02:00:24;;;;;;;78.22;32.30;;;3.50;96.70;;;;;;5014380;28;20595;-82
2021/01/04 02:03:04;;;;;;;79.07;32.33;;;3.50;96.70;;;;;;5014911;28;20022;-82
2021/01/04 02:05:43;;;;;;;62.38;28.70;;;3.50;96.80;;;;;;5014925;28;20387;-83
2021/01/04 02:08:19;;;;;;;69.63;30.08;;;3.50;97.00;;;;;;5015129;28;20101;-83
2021/01/04 02:10:52;;;;;;;72.85;29.77;;;3.50;96.80;;;;;;4996995;28;20065;-83
2021/01/04 02:13:48;;;;;;;68.38;29.67;;;3.50;96.70;;;;;;5015074;28;20038;-83
2021/01/04 02:16:26;;;;;;;71.78;30.20;;;3.50;96.70;;;;;;5015505;28;20032;-82
2021/01/04 02:19:06;;;;;;;70.40;29.02;;;3.50;96.80;;;;;;5015459;28;20028;-83
2021/01/04 02:21:35;;;;;;;60.53;26.80;;;3.50;96.80;;;;;;5015238;28;20034;-84
2021/01/04 02:24:08;;;;;;;65.30;30.15;;;3.50;97.00;;;;;;5015125;28;20026;-84
2021/01/04 02:26:36;;;;;;;71.18;31.55;;;3.50;96.90;;;;;;5015482;28;20037;-84
2021/01/04 02:29:20;;;;;;;71.68;31.55;;;3.50;96.90;;;;;;4998575;28;20018;-83
2021/01/04 02:31:50;;;;;;;65.95;30.13;;;3.50;97.00;;;;;;5014993;28;20032;-83
2021/01/04 02:34:18;;;;;;;65.60;29.48;;;3.50;96.90;;;;;;5014555;28;20033;-83
2021/01/04 02:36:54;;;;;;;60.38;28.90;;;3.60;96.90;;;;;;4996820;28;20474;-84
2021/01/04 02:39:47;;;;;;;64.68;28.35;;;3.50;97.00;;;;;;4996684;28;20057;-82
2021/01/04 02:42:27;;;;;;;;;;;3.60;97.10;;;;;;4996507;28;20029;-83
2021/01/04 02:44:54;;;;;;;57.72;24.50;;;3.60;97.10;;;;;;5014542;28;19906;-83
2021/01/04 02:47:29;;;;;;;58.55;26.48;;;3.60;97.20;;;;;;5014705;28;20025;-84
2021/01/04 02:50:19;;;;;;;55.97;26.25;;;3.60;97.20;;;;;;5015591;28;20075;-84
2021/01/04 02:53:06;;;;;;;49.00;24.15;;;3.70;97.40;;;;;;5016496;28;20465;-84
2021/01/04 02:55:51;;;;;;;57.78;26.75;;;3.70;97.40;;;;;;4997899;28;20117;-84
2021/01/04 02:58:35;;;;;;;51.45;25.55;;;3.70;97.30;;;;;;4997148;28;20836;-83
2021/01/04 03:01:07;;;;;;;50.67;25.45;;;3.70;97.30;;;;;;4996858;28;20054;-84
2021/01/04 03:03:36;;;;;;;49.35;24.73;;;3.80;97.20;;;;;;5014439;28;20380;-83
2021/01/04 03:06:08;;;;;;;50.72;24.27;;;3.80;97.10;;;;;;5013963;28;20538;-83
2021/01/04 03:08:33;;;;;;;51.17;23.58;;;3.80;97.10;;;;;;4998113;28;20057;-83
2021/01/04 03:11:00;;;;;;;50.28;23.23;;;3.80;96.90;;;;;;5014923;28;20460;-84
2021/01/04 03:13:43;;;;;;;51.70;24.65;;;3.70;96.90;;;;;;5015625;28;20048;-83
2021/01/04 03:16:37;;;;;;;46.33;22.42;;;3.80;97.00;;;;;;4995987;28;20038;-82
2021/01/04 03:19:18;;;;;;;48.25;22.52;;;3.80;96.90;;;;;;4968954;28;20538;-82
2021/01/04 03:21:58;;;;;;;52.30;21.83;;;3.70;97.00;;;;;;5013714;28;20108;-82
2021/01/04 03:24:24;;;;;;;47.55;22.38;;;3.70;97.10;;;;;;5013731;28;20034;-82
2021/01/04 03:27:03;;;;;;;49.83;23.10;;;3.70;97.10;;;;;;5014046;28;20113;-81
2021/01/04 03:29:29;;;;;;;49.15;21.73;;;3.80;97.10;;;;;;4994829;28;20464;-78
2021/01/04 03:31:55;;;;;;;50.05;22.70;;;3.80;97.00;;;;;;4994550;28;20379;-79
2021/01/04 03:34:20;;;;;;;55.80;25.70;;;3.70;97.00;;;;;;5012284;28;20026;-79
2021/01/04 03:36:48;;;;;;;53.17;24.90;;;3.70;97.00;;;;;;5012281;28;20137;-77
2021/01/04 03:39:13;;;;;;;57.13;26.77;;;3.70;97.10;;;;;;5012346;28;20034;-78
2021/01/04 03:41:39;;;;;;;55.60;25.70;;;3.80;97.30;;;;;;5012207;28;20033;-78
2021/01/04 03:44:05;;;;;;;55.92;24.98;;;3.80;97.10;;;;;;4994546;28;20084;-78
2021/01/04 03:46:31;;;;;;;56.08;25.60;;;3.80;97.20;;;;;;5012101;28;20026;-79
2021/01/04 03:48:57;;;;;;;57.45;25.48;;;3.80;97.20;;;;;;5012341;28;20033;-79
2021/01/04 03:51:22;;;;;;;56.70;26.00;;;3.80;97.20;;;;;;4994345;28;20022;-78
2021/01/04 03:53:48;;;;;;;58.90;27.90;;;3.80;97.30;;;;;;5011863;28;20018;-78
2021/01/04 03:56:16;;;;;;;60.22;28.27;;;3.90;97.20;;;;;;4997915;28;20085;-78
2021/01/04 03:58:41;;;;;;;56.33;27.00;;;3.90;97.10;;;;;;4997697;28;20060;-78
2021/01/04 04:01:07;;;;;;;61.25;28.45;;;3.90;97.20;;;;;;4997961;28;20496;-78
2021/01/04 04:03:33;;;;;;;59.20;28.85;;;3.90;97.20;;;;;;5015600;28;20029;-77
2021/01/04 04:05:59;;;;;;;63.92;30.98;;;3.90;97.10;;;;;;4997749;28;20364;-78
2021/01/04 04:08:25;;;;;;;63.33;29.35;;;3.90;97.30;;;;;;5015402;28;20108;-78
2021/01/04 04:10:51;;;;;;;60.97;29.60;;;3.90;97.20;;;;;;5015570;28;20085;-79
2021/01/04 04:13:17;;;;;;;60.72;28.45;;;3.90;97.00;;;;;;5015349;28;20095;-79
2021/01/04 04:15:43;;;;;;;61.90;29.90;;;3.90;97.10;;;;;;5015444;28;20034;-79
2021/01/04 04:18:09;;;;;;;59.35;27.52;;;3.90;97.10;;;;;;5015318;28;20033;-79
2021/01/04 04:20:35;;;;;;;55.38;26.50;;;3.90;97.20;;;;;;4997688;28;20057;-78
2021/01/04 04:23:00;;;;;;;61.20;29.73;;;4.00;97.30;;;;;;5015194;28;20550;-78
2021/01/04 04:25:26;;;;;;;57.53;27.98;;;4.00;97.20;;;;;;5014985;28;20494;-78
2021/01/04 04:27:54;;;;;;;60.45;28.30;;;4.00;97.20;;;;;;5015310;28;20088;-78
2021/01/04 04:30:21;;;;;;;61.85;27.73;;;4.00;97.10;;;;;;4997686;28;20022;-78
2021/01/04 04:32:49;;;;;;;60.38;26.90;;;4.00;97.00;;;;;;5015315;28;20472;-78
2021/01/04 04:35:15;;;;;;;63.08;29.75;;;4.00;97.20;;;;;;4997430;28;20080;-78
2021/01/04 04:37:43;;;;;;;62.25;30.10;;;4.00;97.20;;;;;;5015017;28;20030;-78
2021/01/04 04:40:25;;;;;;;63.38;30.60;;;4.00;97.20;;;;;;4997124;28;20026;-78
2021/01/04 04:43:11;;;;;;;67.40;29.92;;;4.00;97.20;;;;;;4997263;28;20439;-79
2021/01/04 04:45:38;;;;;;;62.03;29.15;;;4.10;97.20;;;;;;4996972;28;20112;-79
2021/01/04 04:48:27;;;;;;;69.68;32.78;;;4.10;97.20;;;;;;5014797;28;20379;-79
2021/01/04 04:51:20;;;;;;;67.97;31.85;;;4.10;97.10;;;;;;5006353;28;20038;-78
2021/01/04 04:54:09;;;;;;;67.80;31.98;;;4.00;97.00;;;;;;4997020;28;20037;-79
2021/01/04 04:56:46;;;;;;;70.68;32.85;;;4.10;97.20;;;;;;4969760;28;20038;-79
2021/01/04 04:59:16;;;;;;;65.13;30.63;;;4.10;97.10;;;;;;5014467;28;20491;-79
2021/01/04 05:02:01;;;;;;;62.72;29.05;;;4.10;97.10;;;;;;4996727;28;20476;-79
2021/01/04 05:04:38;;;;;;;58.05;27.85;;;4.10;97.00;;;;;;5014391;28;20065;-79
2021/01/04 05:07:30;;;;;;;55.08;25.30;;;4.00;96.90;;;;;;4996435;28;20790;-79
2021/01/04 05:10:02;;;;;;;58.00;26.08;;;4.00;96.90;;;;;;4996770;28;20029;-80
2021/01/04 05:12:47;;;;;;;54.72;24.83;;;4.00;97.00;;;;;;4996200;28;20384;-80
2021/01/04 05:15:16;;;;;;;57.88;26.00;;;4.00;97.20;;;;;;4996500;28;20392;-78
2021/01/04 05:17:48;;;;;;;55.08;25.90;;;4.00;96.70;;;;;;4996019;28;20554;-79
2021/01/04 05:20:17;;;;;;;;;;;4.00;96.80;;;;;;5014162;28;20037;-79
2021/01/04 05:23:08;;;;;;;59.20;26.75;;;4.00;96.90;;;;;;5013847;28;20024;-78
2021/01/04 05:25:58;;;;;;;84.80;38.47;;;4.00;96.90;;;;;;4986711;28;20046;-79
2021/01/04 05:29:05;;;;;;;68.78;31.98;;;3.90;96.80;;;;;;5013424;28;20084;-79
2021/01/04 05:31:50;;;;;;;98.63;45.95;;;3.90;96.90;;;;;;5005996;28;20184;-78
2021/01/04 05:34:40;;;;;;;84.00;39.35;;;3.90;97.00;;;;;;4996925;28;20030;-78
2021/01/04 05:37:28;;;;;;;78.13;35.42;;;3.90;97.00;;;;;;5013564;28;20044;-78
2021/01/04 05:39:59;;;;;;;67.70;32.13;;;3.90;97.10;;;;;;5013594;28;20030;-79
2021/01/04 05:42:36;;;;;;;71.45;30.63;;;4.00;97.10;;;;;;5014022;28;20754;-78
2021/01/04 05:45:33;;;;;;;67.28;30.02;;;4.00;97.10;;;;;;5013320;28;20049;-79
2021/01/04 05:48:14;;;;;;;76.45;32.13;;;4.00;97.10;;;;;;4997135;28;20044;-78
2021/01/04 05:51:05;;;;;;;61.13;27.85;;;4.00;96.90;;;;;;5025230;28;20143;-78
2021/01/04 05:53:31;;;;;;;67.20;29.25;;;4.00;96.90;;;;;;5010039;28;20026;-78
2021/01/04 05:55:58;;;;;;;69.28;29.88;;;4.00;96.80;;;;;;5028649;28;20102;-78
2021/01/04 05:58:30;;;;;;;67.93;30.25;;;4.00;96.60;;;;;;5028313;28;20094;-79
2021/01/04 06:01:14;;;;;;;64.53;27.83;;;3.90;96.50;;;;;;5003632;28;20417;-80
2021/01/04 06:03:40;;;;;;;63.80;27.05;;;3.90;96.50;;;;;;5017692;28;20523;-80
2021/01/04 06:06:31;;;;;;;62.83;27.95;;;3.80;96.60;;;;;;5014058;28;20034;-79
2021/01/04 06:09:12;;;;;;;58.13;25.20;;;3.80;96.60;;;;;;4970335;28;20065;-79
2021/01/04 06:12:08;;;;;;;55.65;25.33;;;3.80;96.50;;;;;;4995875;28;20112;-78
2021/01/04 06:14:36;;;;;;;57.08;25.67;;;3.80;96.40;;;;;;5013197;28;20037;-78
2021/01/04 06:17:26;;;;;;;59.90;26.25;;;3.80;96.50;;;;;;5012273;28;20053;-79
2021/01/04 06:19:54;;;;;;;66.20;28.02;;;3.80;96.60;;;;;;5012884;28;20034;-79
2021/01/04 06:22:31;;;;;;;67.28;28.15;;;3.70;96.60;;;;;;4994881;28;20033;-79
2021/01/04 06:25:02;;;;;;;62.08;28.10;;;3.70;96.70;;;;;;5012641;28;20033;-79
2021/01/04 06:27:40;;;;;;;71.28;31.45;;;3.80;96.90;;;;;;4994464;28;20037;-78
2021/01/04 06:30:21;;;;;;;77.15;35.78;;;3.80;96.90;;;;;;5012053;28;20087;-79
2021/01/04 06:32:49;;;;;;;73.90;33.22;;;3.90;96.90;;;;;;5012003;28;20461;-80
2021/01/04 06:35:29;;;;;;;90.78;39.95;;;3.90;96.80;;;;;;5012208;28;20494;-79
2021/01/04 06:38:25;;;;;;;123.28;53.17;;;3.90;96.80;;;;;;5011823;28;20029;-79
2021/01/04 06:40:52;;;;;;;97.53;43.20;;;3.90;96.70;;;;;;5011948;28;20021;-79
2021/01/04 06:43:24;;;;;;;123.20;54.80;;;3.90;96.80;;;;;;4994196;28;20026;-78
2021/01/04 06:46:28;;;;;;;104.30;47.50;;;3.90;96.80;;;;;;5011208;28;20079;-79
2021/01/04 06:49:05;;;;;;;83.55;37.50;;;4.00;96.60;;;;;;4994172;28;20033;-79
2021/01/04 06:51:57;;;;;;;70.28;31.02;;;3.90;96.50;;;;;;5012169;28;20475;-79
2021/01/04 06:54:41;;;;;;;72.93;31.40;;;3.90;96.70;;;;;;5011934;28;20076;-78
2021/01/04 06:57:16;;;;;;;69.70;31.08;;;3.90;96.80;;;;;;5011742;28;20022;-78
2021/01/04 07:00:08;;;;;;;72.15;32.50;;;4.00;96.80;;;;;;4994282;28;20120;-79
2021/01/04 07:03:11;;;;;;;69.07;29.97;;;4.00;96.90;;;;;;4989081;28;20121;-80
2021/01/04 07:05:39;;;;;;;;;;;4.10;96.70;;;;;;5012625;28;20030;-79
2021/01/04 07:08:38;;;;;;;75.43;34.00;;;4.10;96.60;;;;;;5011661;28;20252;-80
2021/01/04 07:11:25;;;;;;;88.82;35.63;;;4.00;96.60;;;;;;4991983;28;20082;-80
2021/01/04 07:14:19;;;;;;;91.10;37.78;;;4.00;96.70;;;;;;4994094;28;20042;-80
2021/01/04 07:17:22;;;;;;;93.70;38.75;;;4.00;96.60;;;;;;5012371;28;20030;-79
2021/01/04 07:20:10;;;;;;;96.55;40.15;;;4.00;96.60;;;;;;5011529;28;20069;-78
2021/01/04 07:23:06;;;;;;;91.55;35.53;;;4.00;96.50;;;;;;5010430;28;20026;-77
2021/01/04 07:25:50;;;;;;;86.78;36.95;;;4.00;96.70;;;;;;5013740;28;20499;-87
2021/01/04 07:28:33;;;;;;;88.85;37.05;;;4.10;97.00;;;;;;5015310;28;20101;-85
2021/01/04 07:31:10;;;;;;;92.03;37.80;;;4.20;97.00;;;;;;5025132;28;20041;-86
2021/01/04 07:33:51;;;;;;;97.65;37.05;;;4.20;96.80;;;;;;5025655;28;20101;-86
2021/01/04 07:36:48;;;;;;;98.90;38.65;;;4.20;96.80;;;;;;5000584;28;20030;-88
2021/01/04 07:39:39;;;;;;;95.28;39.97;;;4.30;96.80;;;;;;5005674;28;20042;-87
2021/01/04 07:42:37;;;;;;;95.15;40.25;;;4.30;96.70;;;;;;5017380;28;20026;-86
2021/01/04 07:45:12;;;;;;;103.32;43.53;;;4.30;96.60;;;;;;5017576;28;20033;-85
2021/01/04 07:48:05;;;;;;;96.00;40.15;;;4.30;96.80;;;;;;5019183;28;20026;-86
2021/01/04 07:50:58;;;;;;;106.75;42.28;;;4.40;96.70;;;;;;5018640;28;20033;-85
2021/01/04 07:54:01;;;;;;;93.43;41.67;;;4.40;96.60;;;;;;5016930;28;20029;-86
2021/01/04 07:56:59;;;;;;;103.40;46.15;;;4.30;96.50;;;;;;5017192;28;20026;-86
2021/01/04 08:00:02;;;;;;;101.65;45.10;;;4.30;96.30;;;;;;4993889;28;20049;-86
2021/01/04 08:02:46;;;;;;;;;;;4.30;96.40;;;;;;5017711;28;20431;-86
2021/01/04 08:05:24;;;;;;;113.20;47.53;;;4.30;96.40;;;;;;5002500;28;20000;-85
2021/01/04 08:08:27;;;;;;;96.03;41.53;;;4.30;96.60;;;;;;5018322;28;20152;-87
2021/01/04 08:11:02;;;;;;;77.97;36.75;;;4.40;96.90;;;;;;4999745;28;20018;-86
2021/01/04 08:13:55;;;;;;;73.20;32.72;;;4.50;96.90;;;;;;5016390;28;20128;-86
2021/01/04 08:16:26;;;;;;;66.47;29.60;;;4.50;96.90;;;;;;5016218;28;20022;-87
2021/01/04 08:18:58;;;;;;;74.57;31.55;;;4.60;96.80;;;;;;5015970;28;20053;-87
2021/01/04 08:21:38;;;;;;;75.87;32.17;;;4.60;96.30;;;;;;5016498;28;20030;-88
2021/01/04 08:24:04;;;;;;;76.20;34.60;;;4.60;96.20;;;;;;4998533;28;20030;-87
2021/01/04 08:27:03;;;;;;;73.75;33.38;;;4.50;96.00;;;;;;5016435;28;20365;-87
2021/01/04 08:29:54;;;;;;;83.05;39.15;;;4.50;96.30;;;;;;5001057;28;20902;-87
2021/01/04 08:32:32;;;;;;;71.60;32.67;;;4.60;96.80;;;;;;5020179;28;20407;-87
2021/01/04 08:35:27;;;;;;;72.15;30.98;;;4.80;97.10;;;;;;5022362;28;20022;-89
2021/01/04 08:37:54;;;;;;;64.40;30.35;;;4.90;96.90;;;;;;5011082;28;20053;-87
2021/01/04 08:40:45;;;;;;;67.10;30.50;;;5.00;97.00;;;;;;5019020;28;20030;-88
2021/01/04 08:43:11;;;;;;;63.55;28.63;;;5.00;96.70;;;;;;4999256;28;20096;-87
2021/01/04 08:45:45;;;;;;;67.95;31.08;;;5.10;96.50;;;;;;5017191;28;20547;-87
2021/01/04 08:48:20;;;;;;;69.93;30.52;;;5.10;96.40;;;;;;4999743;28;20025;-88
2021/01/04 08:51:00;;;;;;;70.53;30.55;;;5.10;96.30;;;;;;5018354;28;20018;-88
2021/01/04 08:53:26;;;;;;;73.78;32.22;;;5.20;96.30;;;;;;5019067;28;20059;-87
2021/01/04 08:56:03;;;;;;;71.88;33.00;;;5.30;96.60;;;;;;5019554;28;20029;-90
2021/01/04 08:58:43;;;;;;;65.53;30.30;;;5.30;96.20;;;;;;5000717;28;20026;-88
2021/01/04 09:01:12;;;;;;;64.68;30.27;;;5.30;96.30;;;;;;5017974;28;20026;-89
2021/01/04 09:03:38;;;;;;;62.72;29.48;;;5.40;96.30;;;;;;5001850;28;20065;-88
2021/01/04 09:06:22;;;;;;;74.18;34.47;;;5.40;96.00;;;;;;5020914;28;20041;-89
2021/01/04 09:08:52;;;;;;;55.92;26.88;;;5.40;95.70;;;;;;5019852;28;20022;-91
2021/01/04 09:11:19;;;;;;;61.03;29.38;;;5.50;95.90;;;;;;5019243;28;20029;-92
2021/01/04 09:13:47;;;;;;;66.75;30.65;;;5.50;96.00;;;;;;5021739;28;20042;-91
2021/01/04 09:16:31;;;;;;;63.47;30.67;;;5.60;96.10;;;;;;5019667;28;20042;-80
2021/01/04 09:19:17;;;;;;;71.68;33.20;;;5.70;96.20;;;;;;5013831;28;20033;-83
2021/01/04 09:21:45;;;;;;;64.57;30.50;;;5.70;96.30;;;;;;4996260;28;20022;-81
2021/01/04 09:24:22;;;;;;;65.20;30.98;;;5.80;96.10;;;;;;4995558;28;20030;-83
2021/01/04 09:26:51;;;;;;;63.40;29.73;;;5.90;95.50;;;;;;5013133;28;20030;-83
2021/01/04 09:29:52;;;;;;;62.72;30.33;;;5.80;95.40;;;;;;4995800;28;20018;-82
2021/01/04 09:32:26;;;;;;;56.95;27.95;;;5.90;95.30;;;;;;4982101;28;20038;-83
2021/01/04 09:34:52;;;;;;;51.80;25.77;;;5.90;95.40;;;;;;5013954;28;20476;-80
2021/01/04 09:37:24;;;;;;;62.88;28.52;;;5.90;95.40;;;;;;4996487;28;20032;-81
2021/01/04 09:39:56;;;;;;;60.10;28.33;;;6.00;95.60;;;;;;5014049;28;20022;-81
2021/01/04 09:42:26;;;;;;;57.53;26.10;;;6.10;95.70;;;;;;5013404;28;20168;-80
2021/01/04 09:44:52;;;;;;;67.25;30.65;;;6.20;95.40;;;;;;5012762;28;20018;-80
2021/01/04 09:47:34;;;;;;;66.18;29.13;;;6.10;94.80;;;;;;4995115;28;20114;-80
2021/01/04 09:50:05;;;;;;;52.83;26.38;;;6.10;94.70;;;;;;5013146;28;20022;-80
2021/01/04 09:53:00;;;;;;;59.80;29.10;;;6.10;94.80;;;;;;4994034;28;20022;-81
2021/01/04 09:55:32;;;;;;;67.85;33.25;;;6.10;94.30;;;;;;5009583;28;20480;-81
2021/01/04 09:58:01;;;;;;;68.40;34.70;;;6.00;93.80;;;;;;5012897;28;20030;-81
2021/01/04 10:00:30;;;;;;;67.80;34.15;;;5.90;94.00;;;;;;5013858;28;20028;-81
2021/01/04 10:03:26;;;;;;;85.78;37.55;;;5.90;94.30;;;;;;5013593;28;20361;-81
2021/01/04 10:05:52;;;;;;;95.22;43.22;;;5.90;94.30;;;;;;5003341;28;20460;-80
2021/01/04 10:08:24;;;;;;;104.90;43.72;;;5.90;94.00;;;;;;5019739;28;20076;-80
2021/01/04 10:11:02;;;;;;;107.20;48.88;;;5.90;94.10;;;;;;5014742;28;20490;-80
2021/01/04 10:13:29;;;;;;;90.82;40.65;;;5.90;94.00;;;;;;4994591;28;20092;-79
2021/01/04 10:15:57;;;;;;;79.55;39.13;;;5.90;93.80;;;;;;5012618;28;20459;-80
2021/01/04 10:18:35;;;;;;;82.88;39.50;;;5.90;93.70;;;;;;5012640;28;20026;-80
2021/01/04 10:21:01;;;;;;;91.90;40.00;;;5.90;93.90;;;;;;5012710;28;20026;-79
2021/01/04 10:23:40;;;;;;;80.85;34.53;;;5.90;94.50;;;;;;5012416;28;20108;-80
2021/01/04 10:26:09;;;;;;;78.88;32.40;;;6.00;94.00;;;;;;4995095;28;20033;-82
2021/01/04 10:28:38;;;;;;;71.53;32.17;;;5.90;93.50;;;;;;4995039;28;20468;-81
2021/01/04 10:31:10;;;;;;;74.80;32.03;;;5.80;93.20;;;;;;5012723;28;20028;-81
2021/01/04 10:33:38;;;;;;;;;;;5.80;93.40;;;;;;5012501;28;20412;-81
2021/01/04 10:36:18;;;;;;;66.50;31.80;;;5.80;93.00;;;;;;5013244;28;19914;-81
2021/01/04 10:38:59;;;;;;;60.42;29.20;;;5.70;92.90;;;;;;5013491;28;20041;-81
2021/01/04 10:41:30;;;;;;;56.17;27.45;;;5.60;93.00;;;;;;5012577;28;20029;-79
2021/01/04 10:44:25;;;;;;;59.53;28.38;;;5.60;93.10;;;;;;5012708;28;20034;-79
2021/01/04 10:47:19;;;;;;;62.83;30.55;;;5.50;92.90;;;;;;5012458;28;20029;-81
2021/01/04 10:49:45;;;;;;;66.35;29.67;;;5.40;93.10;;;;;;5012329;28;20018;-79
2021/01/04 10:52:20;;;;;;;65.32;31.35;;;5.50;93.30;;;;;;5012840;28;20028;-80
2021/01/04 10:54:46;;;;;;;74.43;33.20;;;5.40;93.20;;;;;;4995330;28;20025;-81
2021/01/04 10:57:17;;;;;;;66.15;28.75;;;5.40;93.20;;;;;;4995265;28;20081;-80
2021/01/04 10:59:58;;;;;;;66.38;29.13;;;5.40;93.40;;;;;;5012986;28;20021;-81
2021/01/04 11:02:24;;;;;;;74.78;35.25;;;5.50;93.40;;;;;;5012052;28;20037;-80
2021/01/04 11:04:54;;;;;;;79.70;43.03;;;5.40;93.00;;;;;;5012663;28;20025;-81
2021/01/04 11:07:28;;;;;;;78.97;38.35;;;5.30;93.10;;;;;;5012308;28;20110;-82
2021/01/04 11:09:54;;;;;;;72.35;31.40;;;5.30;92.80;;;;;;5012513;28;20045;-82
2021/01/04 11:12:21;;;;;;;69.50;31.80;;;5.30;93.00;;;;;;5013503;28;20030;-80
2021/01/04 11:15:04;;;;;;;74.35;33.92;;;5.30;93.10;;;;;;5012186;28;20364;-81
2021/01/04 11:17:34;;;;;;;81.45;36.03;;;5.30;92.90;;;;;;5012298;28;20029;-81
2021/01/04 11:20:15;;;;;;;78.13;34.40;;;5.20;92.90;;;;;;4994316;28;20026;-80
2021/01/04 11:22:42;;;;;;;70.95;33.20;;;5.20;92.70;;;;;;5012275;28;20100;-81
2021/01/04 11:25:09;;;;;;;71.32;32.40;;;5.10;92.70;;;;;;5011536;28;20033;-80
2021/01/04 11:27:34;;;;;;;74.68;33.10;;;5.10;92.80;;;;;;5012586;28;20026;-79
2021/01/04 11:30:05;;;;;;;81.13;37.00;;;5.10;93.00;;;;;;5017267;28;20022;-82
2021/01/04 11:32:30;;;;;;;81.50;38.03;;;5.10;93.00;;;;;;5013951;28;20116;-83
2021/01/04 11:35:00;;;;;;;91.45;38.28;;;5.10;92.80;;;;;;5013228;28;20069;-83
2021/01/04 11:37:27;;;;;;;76.88;35.58;;;5.00;92.70;;;;;;5013529;28;20514;-83
2021/01/04 11:39:53;;;;;;;71.60;32.42;;;5.00;92.40;;;;;;5014246;28;20022;-84
2021/01/04 11:42:20;;;;;;;75.38;32.33;;;4.90;92.60;;;;;;5013019;28;20034;-86
2021/01/04 11:44:46;;;;;;;69.93;32.95;;;4.90;92.70;;;;;;4996156;28;20064;-85
2021/01/04 11:47:12;;;;;;;75.25;34.50;;;4.80;92.60;;;;;;5012698;28;20030;-86
2021/01/04 11:49:38;;;;;;;77.43;34.72;;;4.80;92.60;;;;;;5013968;28;20076;-86
2021/01/04 11:52:04;;;;;;;89.15;40.45;;;4.80;92.60;;;;;;5013556;28;20555;-84
2021/01/04 11:54:31;;;;;;;80.53;36.15;;;4.80;92.70;;;;;;5013971;28;20041;-84
2021/01/04 11:56:57;;;;;;;72.47;32.03;;;4.70;92.70;;;;;;5015929;28;20042;-83
2021/01/04 11:59:23;;;;;;;80.68;34.67;;;4.70;92.80;;;;;;5013152;28;20026;-82
2021/01/04 12:01:49;;;;;;;76.75;32.45;;;4.70;92.60;;;;;;5014176;28;20153;-84
2021/01/04 12:04:15;;;;;;;73.10;32.13;;;4.70;92.70;;;;;;4998324;28;20443;-83
2021/01/04 12:06:40;;;;;;;74.30;33.75;;;4.70;92.70;;;;;;4999378;28;20144;-81
2021/01/04 12:09:09;;;;;;;70.40;33.65;;;4.60;92.70;;;;;;5020120;28;20022;-83
2021/01/04 12:11:39;;;;;;;83.60;36.53;;;4.60;92.90;;;;;;5016259;28;20030;-80
2021/01/04 12:14:06;;;;;;;72.30;33.80;;;4.70;92.90;;;;;;5016348;28;20042;-82
2021/01/04 12:16:34;;;;;;;80.60;33.28;;;4.70;92.80;;;;;;5018567;28;20121;-83
2021/01/04 12:19:04;;;;;;;75.18;34.33;;;4.60;92.50;;;;;;5019465;28;20050;-83
2021/01/04 12:21:30;;;;;;;78.07;34.30;;;4.50;92.50;;;;;;5019820;28;20041;-83
2021/01/04 12:23:56;;;;;;;76.45;33.47;;;4.50;92.50;;;;;;5017326;28;20033;-83
2021/01/04 12:26:22;;;;;;;73.82;32.03;;;4.40;92.60;;;;;;4999162;28;20034;-83
2021/01/04 12:28:49;;;;;;;76.78;32.78;;;4.40;92.40;;;;;;5018662;28;20026;-83
2021/01/04 12:31:16;;;;;;;85.93;37.25;;;4.40;92.80;;;;;;5020391;28;20074;-81
2021/01/04 12:33:43;;;;;;;76.53;34.22;;;4.40;92.80;;;;;;5015786;28;20021;-82
2021/01/04 12:36:32;;;;;;;78.13;32.13;;;4.30;92.50;;;;;;5016249;28;20156;-83
2021/01/04 12:38:58;;;;;;;75.00;31.42;;;4.30;92.50;;;;;;5015556;28;20023;-82
2021/01/04 12:41:24;;;;;;;71.82;29.95;;;4.20;92.40;;;;;;5016342;28;20041;-81
2021/01/04 12:43:49;;;;;;;68.75;30.02;;;4.20;92.40;;;;;;5016804;28;20037;-81
2021/01/04 12:46:43;;;;;;;74.50;31.33;;;4.10;92.40;;;;;;5015947;28;20546;-84
2021/01/04 12:49:09;;;;;;;67.75;29.38;;;4.00;92.30;;;;;;5002171;28;20112;-83
2021/01/04 12:51:37;;;;;;;69.68;28.55;;;4.00;92.50;;;;;;4999107;28;20029;-82
2021/01/04 12:54:06;;;;;;;67.80;31.95;;;3.90;92.60;;;;;;5016073;28;20022;-83
2021/01/04 12:56:32;;;;;;;71.55;33.08;;;3.90;92.60;;;;;;5016087;28;20026;-82
2021/01/04 12:58:58;;;;;;;69.55;28.95;;;3.90;92.80;;;;;;5015349;28;20033;-82
2021/01/04 13:01:23;;;;;;;69.88;30.17;;;3.80;92.60;;;;;;5017429;28;20546;-84
2021/01/04 13:03:52;;;;;;;73.85;33.33;;;3.70;92.60;;;;;;4999302;28;20085;-83
2021/01/04 13:06:24;;;;;;;66.32;31.10;;;3.70;92.40;;;;;;5014476;28;20030;-82
2021/01/04 13:08:50;;;;;;;75.97;33.05;;;3.60;92.40;;;;;;5015387;28;20032;-83
2021/01/04 13:11:17;;;;;;;74.80;32.55;;;3.60;92.60;;;;;;5016172;28;20376;-82
2021/01/04 13:13:42;;;;;;;74.93;33.20;;;3.60;92.90;;;;;;5014893;28;20050;-83
2021/01/04 13:16:09;;;;;;;80.47;34.97;;;3.50;93.00;;;;;;4996955;28;20037;-82
2021/01/04 13:18:35;;;;;;;88.57;37.42;;;3.60;93.20;;;;;;4998166;28;20084;-81
2021/01/04 13:21:00;;;;;;;68.47;33.38;;;3.60;93.00;;;;;;4997080;28;20038;-78
2021/01/04 13:23:26;;;;;;;66.90;30.95;;;3.50;93.00;;;;;;4995845;28;20041;-79
2021/01/04 13:25:52;;;;;;;59.78;26.25;;;3.50;93.00;;;;;;5009801;28;20049;-79